Aviation Digital Data Service (ADDS)

Output produced by METARs form (0840 UTC 24 March 2019)
found at http://www.aviationweather.gov/metar/data/
 
METAR text: HTKJ 240700Z 04008KT 9999 FEW030 26/18 Q1016 NOSIG
Conditions at: HTKJ (KILIMANJARO AIRP, TZ) observed 0700 UTC 24 March 2019
Temperature: 26.0°C (79°F)
Dewpoint: 18.0°C (64°F) [RH = 61%]
Pressure (altimeter): 30.00 inches Hg (1016.0 mb)
Winds: from the NE (40 degrees) at 9 MPH (8 knots; 4.1 m/s)
Visibility: 6 or more miles (10+ km)
Ceiling: at least 12,000 feet AGL
Clouds: few clouds at 3000 feet AGL
Weather: no significant weather observed at this time

METAR text: HTKJ 240600Z 09010KT 9999 FEW026 25/18 Q1016 NOSIG
Conditions at: HTKJ (KILIMANJARO AIRP, TZ) observed 0600 UTC 24 March 2019
Temperature: 25.0°C (77°F)
Dewpoint: 18.0°C (64°F) [RH = 65%]
Pressure (altimeter): 30.00 inches Hg (1016.0 mb)
Winds: from the E (90 degrees) at 12 MPH (10 knots; 5.1 m/s)
Visibility: 6 or more miles (10+ km)
Ceiling: at least 12,000 feet AGL
Clouds: few clouds at 2600 feet AGL
Weather: no significant weather observed at this time

METAR text: HTKJ 240500Z 09011KT 9999 SCT022 22/18 Q1015 NOSIG
Conditions at: HTKJ (KILIMANJARO AIRP, TZ) observed 0500 UTC 24 March 2019
Temperature: 22.0°C (72°F)
Dewpoint: 18.0°C (64°F) [RH = 78%]
Pressure (altimeter): 29.97 inches Hg (1015.0 mb)
Winds: from the E (90 degrees) at 13 MPH (11 knots; 5.7 m/s)
Visibility: 6 or more miles (10+ km)
Ceiling: at least 12,000 feet AGL
Clouds: scattered clouds at 2200 feet AGL
Weather: no significant weather observed at this time

METAR text: HTKJ 240400Z 10008KT 9999 SCT022 21/18 Q1015 NOSIG
Conditions at: HTKJ (KILIMANJARO AIRP, TZ) observed 0400 UTC 24 March 2019
Temperature: 21.0°C (70°F)
Dewpoint: 18.0°C (64°F) [RH = 83%]
Pressure (altimeter): 29.97 inches Hg (1015.0 mb)
Winds: from the E (100 degrees) at 9 MPH (8 knots; 4.1 m/s)
Visibility: 6 or more miles (10+ km)
Ceiling: at least 12,000 feet AGL
Clouds: scattered clouds at 2200 feet AGL
Weather: no significant weather observed at this time

METAR text: HTKJ 240300Z 09009KT 9999 BKN024 22/19 Q1015 NOSIG
Conditions at: HTKJ (KILIMANJARO AIRP, TZ) observed 0300 UTC 24 March 2019
Temperature: 22.0°C (72°F)
Dewpoint: 19.0°C (66°F) [RH = 83%]
Pressure (altimeter): 29.97 inches Hg (1015.0 mb)
Winds: from the E (90 degrees) at 10 MPH (9 knots; 4.6 m/s)
Visibility: 6 or more miles (10+ km)
Ceiling: 2400 feet AGL
Clouds: broken clouds at 2400 feet AGL
Weather: no significant weather observed at this time

METAR text: HTKJ 232300Z 10020KT 9999 FEW026 24/20 Q1013 NOSIG
Conditions at: HTKJ (KILIMANJARO AIRP, TZ) observed 2300 UTC 23 March 2019
Temperature: 24.0°C (75°F)
Dewpoint: 20.0°C (68°F) [RH = 78%]
Pressure (altimeter): 29.91 inches Hg (1013.0 mb)
Winds: from the E (100 degrees) at 23 MPH (20 knots; 10.3 m/s)
Visibility: 6 or more miles (10+ km)
Ceiling: at least 12,000 feet AGL
Clouds: few clouds at 2600 feet AGL
Weather: no significant weather observed at this time

METAR text: HTKJ 232100Z 09028KT 7000 BLDU FEW028 26/19 Q1012 NOSIG
Conditions at: HTKJ (KILIMANJARO AIRP, TZ) observed 2100 UTC 23 March 2019
Temperature: 26.0°C (79°F)
Dewpoint: 19.0°C (66°F) [RH = 65%]
Pressure (altimeter): 29.88 inches Hg (1012.0 mb)
Winds: from the E (90 degrees) at 32 MPH (28 knots; 14.4 m/s)
Visibility: 4 miles ( 7 km)
Ceiling: at least 12,000 feet AGL
Clouds: few clouds at 2800 feet AGL
Weather: BLDU  (blowing dust)

METAR text: HTKJ 232000Z 09023KT 9999 FEW030 27/16 Q1012 NOSIG
Conditions at: HTKJ (KILIMANJARO AIRP, TZ) observed 2000 UTC 23 March 2019
Temperature: 27.0°C (81°F)
Dewpoint: 16.0°C (61°F) [RH = 51%]
Pressure (altimeter): 29.88 inches Hg (1012.0 mb)
Winds: from the E (90 degrees) at 26 MPH (23 knots; 11.8 m/s)
Visibility: 6 or more miles (10+ km)
Ceiling: at least 12,000 feet AGL
Clouds: few clouds at 3000 feet AGL
Weather: no significant weather observed at this time

METAR text: HTKJ 231900Z 10020KT 9999 FEW032 28/14 Q1011 NOSIG
Conditions at: HTKJ (KILIMANJARO AIRP, TZ) observed 1900 UTC 23 March 2019
Temperature: 28.0°C (82°F)
Dewpoint: 14.0°C (57°F) [RH = 42%]
Pressure (altimeter): 29.85 inches Hg (1011.0 mb)
Winds: from the E (100 degrees) at 23 MPH (20 knots; 10.3 m/s)
Visibility: 6 or more miles (10+ km)
Ceiling: at least 12,000 feet AGL
Clouds: few clouds at 3200 feet AGL
Weather: no significant weather observed at this time

METAR text: HTKJ 231800Z 09020KT 9999 FEW034 29/13 Q1011 NOSIG
Conditions at: HTKJ (KILIMANJARO AIRP, TZ) observed 1800 UTC 23 March 2019
Temperature: 29.0°C (84°F)
Dewpoint: 13.0°C (55°F) [RH = 37%]
Pressure (altimeter): 29.85 inches Hg (1011.0 mb)
Winds: from the E (90 degrees) at 23 MPH (20 knots; 10.3 m/s)
Visibility: 6 or more miles (10+ km)
Ceiling: at least 12,000 feet AGL
Clouds: few clouds at 3400 feet AGL
Weather: no significant weather observed at this time

METAR text: HTKJ 231700Z 09015KT 9999 FEW038 30/12 Q1010 NOSIG
Conditions at: HTKJ (KILIMANJARO AIRP, TZ) observed 1700 UTC 23 March 2019
Temperature: 30.0°C (86°F)
Dewpoint: 12.0°C (54°F) [RH = 33%]
Pressure (altimeter): 29.82 inches Hg (1010.0 mb)
Winds: from the E (90 degrees) at 17 MPH (15 knots; 7.7 m/s)
Visibility: 6 or more miles (10+ km)
Ceiling: at least 12,000 feet AGL
Clouds: few clouds at 3800 feet AGL
Weather: no significant weather observed at this time

METAR text: HTKJ 231600Z 09015KT 9999 FEW042 31/12 Q1010 NOSIG
Conditions at: HTKJ (KILIMANJARO AIRP, TZ) observed 1600 UTC 23 March 2019
Temperature: 31.0°C (88°F)
Dewpoint: 12.0°C (54°F) [RH = 31%]
Pressure (altimeter): 29.82 inches Hg (1010.0 mb)
Winds: from the E (90 degrees) at 17 MPH (15 knots; 7.7 m/s)
Visibility: 6 or more miles (10+ km)
Ceiling: at least 12,000 feet AGL
Clouds: few clouds at 4200 feet AGL
Weather: no significant weather observed at this time

METAR text: HTKJ 231400Z 09015KT 9999 FEW048 34/13 Q1010 NOSIG
Conditions at: HTKJ (KILIMANJARO AIRP, TZ) observed 1400 UTC 23 March 2019
Temperature: 34.0°C (93°F)
Dewpoint: 13.0°C (55°F) [RH = 28%]
Pressure (altimeter): 29.82 inches Hg (1010.0 mb)
Winds: from the E (90 degrees) at 17 MPH (15 knots; 7.7 m/s)
Visibility: 6 or more miles (10+ km)
Ceiling: at least 12,000 feet AGL
Clouds: few clouds at 4800 feet AGL
Weather: no significant weather observed at this time

METAR text: HTKJ 231200Z 09010KT 9999 SCT048 34/14 Q1011 NOSIG
Conditions at: HTKJ (KILIMANJARO AIRP, TZ) observed 1200 UTC 23 March 2019
Temperature: 34.0°C (93°F)
Dewpoint: 14.0°C (57°F) [RH = 30%]
Pressure (altimeter): 29.85 inches Hg (1011.0 mb)
Winds: from the E (90 degrees) at 12 MPH (10 knots; 5.1 m/s)
Visibility: 6 or more miles (10+ km)
Ceiling: at least 12,000 feet AGL
Clouds: scattered clouds at 4800 feet AGL
Weather: no significant weather observed at this time

METAR text: HTKJ 231100Z 09010KT 9999 SCT044 33/15 Q1012 NOSIG
Conditions at: HTKJ (KILIMANJARO AIRP, TZ) observed 1100 UTC 23 March 2019
Temperature: 33.0°C (91°F)
Dewpoint: 15.0°C (59°F) [RH = 34%]
Pressure (altimeter): 29.88 inches Hg (1012.0 mb)
Winds: from the E (90 degrees) at 12 MPH (10 knots; 5.1 m/s)
Visibility: 6 or more miles (10+ km)
Ceiling: at least 12,000 feet AGL
Clouds: scattered clouds at 4400 feet AGL
Weather: no significant weather observed at this time

METAR text: HTKJ 231000Z 09011KT 9999 SCT042 32/15 Q1013 NOSIG
Conditions at: HTKJ (KILIMANJARO AIRP, TZ) observed 1000 UTC 23 March 2019
Temperature: 32.0°C (90°F)
Dewpoint: 15.0°C (59°F) [RH = 36%]
Pressure (altimeter): 29.91 inches Hg (1013.0 mb)
Winds: from the E (90 degrees) at 13 MPH (11 knots; 5.7 m/s)
Visibility: 6 or more miles (10+ km)
Ceiling: at least 12,000 feet AGL
Clouds: scattered clouds at 4200 feet AGL
Weather: no significant weather observed at this time

METAR text: HTKJ 230900Z 08005KT 9999 BKN038 30/17 Q1015 NOSIG
Conditions at: HTKJ (KILIMANJARO AIRP, TZ) observed 0900 UTC 23 March 2019
Temperature: 30.0°C (86°F)
Dewpoint: 17.0°C (63°F) [RH = 46%]
Pressure (altimeter): 29.97 inches Hg (1015.0 mb)
Winds: from the E (80 degrees) at 6 MPH (5 knots; 2.6 m/s)
Visibility: 6 or more miles (10+ km)
Ceiling: 3800 feet AGL
Clouds: broken clouds at 3800 feet AGL
Weather: no significant weather observed at this time

METAR text: HTKJ 230800Z 00000KT 9999 BKN036 29/18 Q1016 NOSIG
Conditions at: HTKJ (KILIMANJARO AIRP, TZ) observed 0800 UTC 23 March 2019
Temperature: 29.0°C (84°F)
Dewpoint: 18.0°C (64°F) [RH = 52%]
Pressure (altimeter): 30.00 inches Hg (1016.0 mb)
Winds: calm
Visibility: 6 or more miles (10+ km)
Ceiling: 3600 feet AGL
Clouds: broken clouds at 3600 feet AGL
Weather: no significant weather observed at this time

METAR text: HTKJ 230700Z 00000KT 9999 BKN032 26/19 Q1016 NOSIG
Conditions at: HTKJ (KILIMANJARO AIRP, TZ) observed 0700 UTC 23 March 2019
Temperature: 26.0°C (79°F)
Dewpoint: 19.0°C (66°F) [RH = 65%]
Pressure (altimeter): 30.00 inches Hg (1016.0 mb)
Winds: calm
Visibility: 6 or more miles (10+ km)
Ceiling: 3200 feet AGL
Clouds: broken clouds at 3200 feet AGL
Weather: no significant weather observed at this time

METAR text: HTKJ 230600Z 10010KT 9999 BKN028 25/19 Q1016 NOSIG
Conditions at: HTKJ (KILIMANJARO AIRP, TZ) observed 0600 UTC 23 March 2019
Temperature: 25.0°C (77°F)
Dewpoint: 19.0°C (66°F) [RH = 69%]
Pressure (altimeter): 30.00 inches Hg (1016.0 mb)
Winds: from the E (100 degrees) at 12 MPH (10 knots; 5.1 m/s)
Visibility: 6 or more miles (10+ km)
Ceiling: 2800 feet AGL
Clouds: broken clouds at 2800 feet AGL
Weather: no significant weather observed at this time

METAR text: HTKJ 230500Z 09006KT 9999 BKN028 22/20 Q1016 NOSIG
Conditions at: HTKJ (KILIMANJARO AIRP, TZ) observed 0500 UTC 23 March 2019
Temperature: 22.0°C (72°F)
Dewpoint: 20.0°C (68°F) [RH = 88%]
Pressure (altimeter): 30.00 inches Hg (1016.0 mb)
Winds: from the E (90 degrees) at 7 MPH (6 knots; 3.1 m/s)
Visibility: 6 or more miles (10+ km)
Ceiling: 2800 feet AGL
Clouds: broken clouds at 2800 feet AGL
Weather: no significant weather observed at this time

METAR text: HTKJ 230400Z 00000KT 9999 SCT026 21/19 Q1014 NOSIG
Conditions at: HTKJ (KILIMANJARO AIRP, TZ) observed 0400 UTC 23 March 2019
Temperature: 21.0°C (70°F)
Dewpoint: 19.0°C (66°F) [RH = 88%]
Pressure (altimeter): 29.94 inches Hg (1014.0 mb)
Winds: calm
Visibility: 6 or more miles (10+ km)
Ceiling: at least 12,000 feet AGL
Clouds: scattered clouds at 2600 feet AGL
Weather: no significant weather observed at this time

METAR text: HTKJ 230300Z 09010KT 9999 FEW026 21/20 Q1014 NOSIG
Conditions at: HTKJ (KILIMANJARO AIRP, TZ) observed 0300 UTC 23 March 2019
Temperature: 21.0°C (70°F)
Dewpoint: 20.0°C (68°F) [RH = 94%]
Pressure (altimeter): 29.94 inches Hg (1014.0 mb)
Winds: from the E (90 degrees) at 12 MPH (10 knots; 5.1 m/s)
Visibility: 6 or more miles (10+ km)
Ceiling: at least 12,000 feet AGL
Clouds: few clouds at 2600 feet AGL
Weather: no significant weather observed at this time

METAR text: HTKJ 230200Z 09010KT 9999 FEW026 22/20 Q1013 NOSIG
Conditions at: HTKJ (KILIMANJARO AIRP, TZ) observed 0200 UTC 23 March 2019
Temperature: 22.0°C (72°F)
Dewpoint: 20.0°C (68°F) [RH = 88%]
Pressure (altimeter): 29.91 inches Hg (1013.0 mb)
Winds: from the E (90 degrees) at 12 MPH (10 knots; 5.1 m/s)
Visibility: 6 or more miles (10+ km)
Ceiling: at least 12,000 feet AGL
Clouds: few clouds at 2600 feet AGL
Weather: no significant weather observed at this time

METAR text: HTKJ 230100Z 10010KT 9999 FEW026 22/19 Q1013 NOSIG
Conditions at: HTKJ (KILIMANJARO AIRP, TZ) observed 0100 UTC 23 March 2019
Temperature: 22.0°C (72°F)
Dewpoint: 19.0°C (66°F) [RH = 83%]
Pressure (altimeter): 29.91 inches Hg (1013.0 mb)
Winds: from the E (100 degrees) at 12 MPH (10 knots; 5.1 m/s)
Visibility: 6 or more miles (10+ km)
Ceiling: at least 12,000 feet AGL
Clouds: few clouds at 2600 feet AGL
Weather: no significant weather observed at this time

METAR text: HTKJ 230000Z 09010KT 9999 FEW026 23/19 Q1013 NOSIG
Conditions at: HTKJ (KILIMANJARO AIRP, TZ) observed 0000 UTC 23 March 2019
Temperature: 23.0°C (73°F)
Dewpoint: 19.0°C (66°F) [RH = 78%]
Pressure (altimeter): 29.91 inches Hg (1013.0 mb)
Winds: from the E (90 degrees) at 12 MPH (10 knots; 5.1 m/s)
Visibility: 6 or more miles (10+ km)
Ceiling: at least 12,000 feet AGL
Clouds: few clouds at 2600 feet AGL
Weather: no significant weather observed at this time

METAR text: HTKJ 222300Z 06012KT 9999 FEW026 25/17 Q1013 NOSIG
Conditions at: HTKJ (KILIMANJARO AIRP, TZ) observed 2300 UTC 22 March 2019
Temperature: 25.0°C (77°F)
Dewpoint: 17.0°C (63°F) [RH = 61%]
Pressure (altimeter): 29.91 inches Hg (1013.0 mb)
Winds: from the ENE (60 degrees) at 14 MPH (12 knots; 6.2 m/s)
Visibility: 6 or more miles (10+ km)
Ceiling: at least 12,000 feet AGL
Clouds: few clouds at 2600 feet AGL
Weather: no significant weather observed at this time

METAR text: HTKJ 222200Z 09015KT 9999 FEW027 26/17 Q1013 NOSIG
Conditions at: HTKJ (KILIMANJARO AIRP, TZ) observed 2200 UTC 22 March 2019
Temperature: 26.0°C (79°F)
Dewpoint: 17.0°C (63°F) [RH = 58%]
Pressure (altimeter): 29.91 inches Hg (1013.0 mb)
Winds: from the E (90 degrees) at 17 MPH (15 knots; 7.7 m/s)
Visibility: 6 or more miles (10+ km)
Ceiling: at least 12,000 feet AGL
Clouds: few clouds at 2700 feet AGL
Weather: no significant weather observed at this time

METAR text: HTKJ 222100Z 09020KT 9999 BLDU FEW028 27/17 Q1013 NOSIG
Conditions at: HTKJ (KILIMANJARO AIRP, TZ) observed 2100 UTC 22 March 2019
Temperature: 27.0°C (81°F)
Dewpoint: 17.0°C (63°F) [RH = 54%]
Pressure (altimeter): 29.91 inches Hg (1013.0 mb)
Winds: from the E (90 degrees) at 23 MPH (20 knots; 10.3 m/s)
Visibility: 6 or more miles (10+ km)
Ceiling: at least 12,000 feet AGL
Clouds: few clouds at 2800 feet AGL
Weather: BLDU  (blowing dust)

Forecast for: HTKJ (KILIMANJARO AIRP, TZ)
Text: HTKJ 240500Z 2406/2506 09010KT 9999 SCT030
Forecast period: 0600 UTC 24 March 2019 to 0600 UTC 25 March 2019
Forecast type: FROM: standard forecast or significant change
Winds: from the E (90 degrees) at 12 MPH (10 knots; 5.1 m/s)
Visibility: 6 or more miles 10+ km)
Ceiling: at least 12,000 feet AGL
Clouds: scattered clouds at 3000 feet AGL
Weather: no significant weather forecast for this period
Text: TEMPO 2418/2422 09015G25KT
Forecast period: 1800 to 2200 UTC 24 March 2019
Forecast type: TEMPORARY: The following changes expected for less than half the time period
Winds: from the E (90 degrees) at 17 MPH (15 knots; 7.7 m/s)
gusting to 29 MPH (25 knots; 12.9 m/s)
Visibility: missing
Ceiling: unknown
Clouds: missing
Weather: no significant weather forecast for this period